EZY63DK EGKK-EDDH
Flight info
| Callsign | EZY63DK |
|---|---|
| Flight time | N/A |
| Altitude | 37000 |
| Route | FRANE M604 PAAVO Q295 SOMVA DCT MAVAS DCT GASTU DCT OSTOR/N0407F230 T904 RIBSO RIBSO3P |
| Aircraft | A319/M-SDE3FGHIRWY/LB1 |
Departure
| Time | N/A |
|---|---|
| Airport | London Gatwick Airport (EGKK) |
Arrival
| Time | 2026-04-23 10:01 |
|---|---|
| Airport | Hamburg Helmut Schmidt Airport (EDDH) |
| Time | Latitude | Longitude | Altitude | Speed | Heading |
|---|---|---|---|---|---|
| 2026-04-23 09:30 | 53.28249 | 6.51952 | 37455 ft | 425 kts | 71° |
| 2026-04-23 09:31 | 53.29352 | 6.56480 | 37458 ft | 424 kts | 71° |
| 2026-04-23 09:31 | 53.31576 | 6.65625 | 37454 ft | 424 kts | 71° |
| 2026-04-23 09:32 | 53.33792 | 6.74767 | 37455 ft | 424 kts | 71° |
| 2026-04-23 09:32 | 53.36004 | 6.83926 | 37441 ft | 424 kts | 71° |
| 2026-04-23 09:33 | 53.38211 | 6.93091 | 37437 ft | 424 kts | 71° |
| 2026-04-23 09:33 | 53.40408 | 7.02262 | 37433 ft | 424 kts | 71° |
| 2026-04-23 09:34 | 53.42595 | 7.11440 | 37442 ft | 424 kts | 71° |
| 2026-04-23 09:34 | 53.44764 | 7.20592 | 37438 ft | 424 kts | 71° |
| 2026-04-23 09:35 | 53.46787 | 7.29787 | 37438 ft | 422 kts | 75° |
| 2026-04-23 09:35 | 53.48443 | 7.39238 | 37439 ft | 421 kts | 77° |
| 2026-04-23 09:36 | 53.50012 | 7.48712 | 36936 ft | 423 kts | 76° |
| 2026-04-23 09:36 | 53.50834 | 7.53523 | 35802 ft | 433 kts | 76° |
| 2026-04-23 09:36 | 53.51687 | 7.58398 | 34947 ft | 436 kts | 75° |
| 2026-04-23 09:36 | 53.52556 | 7.63283 | 34026 ft | 438 kts | 75° |
| 2026-04-23 09:37 | 53.53437 | 7.68216 | 32923 ft | 442 kts | 75° |
| 2026-04-23 09:37 | 53.54322 | 7.73192 | 31816 ft | 444 kts | 75° |
| 2026-04-23 09:37 | 53.55194 | 7.78122 | 30898 ft | 436 kts | 75° |
| 2026-04-23 09:37 | 53.56047 | 7.82973 | 30337 ft | 428 kts | 75° |
| 2026-04-23 09:38 | 53.56881 | 7.87751 | 29653 ft | 422 kts | 75° |
| 2026-04-23 09:38 | 53.57699 | 7.92459 | 29013 ft | 416 kts | 75° |
| 2026-04-23 09:38 | 53.58500 | 7.97097 | 28408 ft | 410 kts | 75° |
| 2026-04-23 09:38 | 53.59287 | 8.01671 | 27805 ft | 405 kts | 75° |
| 2026-04-23 09:39 | 53.60066 | 8.06202 | 27211 ft | 400 kts | 75° |
| 2026-04-23 09:39 | 53.60832 | 8.10661 | 26632 ft | 396 kts | 75° |
| 2026-04-23 09:39 | 53.61591 | 8.15095 | 26040 ft | 392 kts | 75° |
| 2026-04-23 09:39 | 53.62339 | 8.19475 | 25461 ft | 389 kts | 75° |
| 2026-04-23 09:40 | 53.63085 | 8.23839 | 24903 ft | 386 kts | 75° |
| 2026-04-23 09:40 | 53.63827 | 8.28179 | 24353 ft | 384 kts | 75° |
| 2026-04-23 09:40 | 53.64561 | 8.32496 | 23789 ft | 382 kts | 75° |
| 2026-04-23 09:40 | 53.65290 | 8.36782 | 23244 ft | 379 kts | 74° |
| 2026-04-23 09:41 | 53.66009 | 8.41033 | 22767 ft | 375 kts | 74° |
| 2026-04-23 09:41 | 53.66719 | 8.45245 | 22289 ft | 371 kts | 74° |
| 2026-04-23 09:41 | 53.67419 | 8.49405 | 21842 ft | 367 kts | 74° |
| 2026-04-23 09:41 | 53.68109 | 8.53523 | 21404 ft | 363 kts | 73° |
| 2026-04-23 09:42 | 53.68788 | 8.57595 | 20955 ft | 359 kts | 73° |
| 2026-04-23 09:42 | 53.69457 | 8.61626 | 20500 ft | 355 kts | 73° |
| 2026-04-23 09:42 | 53.70121 | 8.65619 | 20048 ft | 352 kts | 73° |
| 2026-04-23 09:42 | 53.70780 | 8.69583 | 19580 ft | 349 kts | 72° |
| 2026-04-23 09:43 | 53.71425 | 8.73470 | 19128 ft | 347 kts | 72° |
| 2026-04-23 09:43 | 53.72078 | 8.77393 | 18647 ft | 346 kts | 72° |
| 2026-04-23 09:43 | 53.72726 | 8.81316 | 18124 ft | 345 kts | 72° |
| 2026-04-23 09:43 | 53.73365 | 8.85212 | 17634 ft | 342 kts | 72° |
| 2026-04-23 09:44 | 53.74000 | 8.89073 | 17154 ft | 340 kts | 72° |
| 2026-04-23 09:44 | 53.74420 | 8.91628 | 16837 ft | 339 kts | 72° |
| 2026-04-23 09:44 | 53.75252 | 8.96721 | 16206 ft | 338 kts | 72° |
| 2026-04-23 09:44 | 53.75876 | 9.00544 | 15733 ft | 337 kts | 71° |
| 2026-04-23 09:45 | 53.76295 | 9.03119 | 15413 ft | 337 kts | 71° |
| 2026-04-23 09:45 | 53.76916 | 9.06944 | 14932 ft | 336 kts | 71° |
| 2026-04-23 09:45 | 53.77535 | 9.10755 | 14452 ft | 336 kts | 72° |
| 2026-04-23 09:45 | 53.78153 | 9.14573 | 13938 ft | 336 kts | 72° |
| 2026-04-23 09:46 | 53.78760 | 9.18329 | 13439 ft | 335 kts | 71° |
| 2026-04-23 09:46 | 53.79377 | 9.22169 | 12936 ft | 333 kts | 71° |
| 2026-04-23 09:46 | 53.79972 | 9.25883 | 12444 ft | 331 kts | 71° |
| 2026-04-23 09:46 | 53.80574 | 9.29645 | 11939 ft | 330 kts | 71° |
| 2026-04-23 09:47 | 53.81176 | 9.33400 | 11431 ft | 328 kts | 71° |
| 2026-04-23 09:47 | 53.81724 | 9.37133 | 11088 ft | 332 kts | 73° |
| 2026-04-23 09:47 | 53.82213 | 9.40979 | 10844 ft | 331 kts | 75° |
| 2026-04-23 09:47 | 53.82644 | 9.44687 | 10712 ft | 317 kts | 75° |
| 2026-04-23 09:48 | 53.83048 | 9.48271 | 10588 ft | 304 kts | 75° |
| 2026-04-23 09:48 | 53.83441 | 9.51735 | 10396 ft | 295 kts | 75° |
| 2026-04-23 09:48 | 53.83834 | 9.55102 | 10282 ft | 290 kts | 74° |
| 2026-04-23 09:48 | 53.84231 | 9.58437 | 10011 ft | 287 kts | 74° |
| 2026-04-23 09:49 | 53.84622 | 9.61751 | 9601 ft | 286 kts | 74° |
| 2026-04-23 09:49 | 53.85009 | 9.65051 | 9196 ft | 285 kts | 74° |
| 2026-04-23 09:49 | 53.85392 | 9.68336 | 8795 ft | 284 kts | 74° |
| 2026-04-23 09:49 | 53.85770 | 9.71607 | 8389 ft | 282 kts | 74° |
| 2026-04-23 09:50 | 53.86079 | 9.74889 | 7968 ft | 285 kts | 84° |
| 2026-04-23 09:50 | 53.85889 | 9.78225 | 7731 ft | 279 kts | 94° |
| 2026-04-23 09:50 | 53.85608 | 9.81364 | 7581 ft | 261 kts | 94° |
| 2026-04-23 09:50 | 53.85326 | 9.84361 | 7378 ft | 255 kts | 94° |
| 2026-04-23 09:51 | 53.85046 | 9.87302 | 7077 ft | 253 kts | 94° |
| 2026-04-23 09:51 | 53.84767 | 9.90224 | 6771 ft | 252 kts | 94° |
| 2026-04-23 09:51 | 53.84485 | 9.93171 | 6449 ft | 251 kts | 94° |
| 2026-04-23 09:51 | 53.84212 | 9.96035 | 6143 ft | 249 kts | 94° |
| 2026-04-23 09:52 | 53.83941 | 9.98924 | 5821 ft | 248 kts | 95° |
| 2026-04-23 09:52 | 53.83675 | 10.01797 | 5519 ft | 246 kts | 94° |
| 2026-04-23 09:52 | 53.83410 | 10.04646 | 5211 ft | 244 kts | 94° |
| 2026-04-23 09:52 | 53.83146 | 10.07474 | 4950 ft | 242 kts | 95° |
| 2026-04-23 09:53 | 53.82887 | 10.10235 | 4807 ft | 233 kts | 94° |
| 2026-04-23 09:53 | 53.82640 | 10.12867 | 4674 ft | 222 kts | 95° |
| 2026-04-23 09:53 | 53.82403 | 10.15382 | 4545 ft | 209 kts | 95° |
| 2026-04-23 09:53 | 53.82177 | 10.17790 | 4238 ft | 206 kts | 94° |
| 2026-04-23 09:54 | 53.81955 | 10.20178 | 3922 ft | 204 kts | 95° |
| 2026-04-23 09:54 | 53.81743 | 10.22501 | 3606 ft | 202 kts | 95° |
| 2026-04-23 09:54 | 53.81542 | 10.24845 | 3257 ft | 201 kts | 94° |
| 2026-04-23 09:54 | 53.81155 | 10.27093 | 3028 ft | 201 kts | 118° |
| 2026-04-23 09:55 | 53.80123 | 10.28635 | 2983 ft | 197 kts | 154° |
| 2026-04-23 09:55 | 53.78801 | 10.29017 | 2991 ft | 193 kts | 187° |
| 2026-04-23 09:55 | 53.77573 | 10.28233 | 3000 ft | 188 kts | 218° |
| 2026-04-23 09:55 | 53.76695 | 10.26660 | 3007 ft | 184 kts | 234° |
| 2026-04-23 09:56 | 53.75882 | 10.24996 | 3002 ft | 183 kts | 235° |
| 2026-04-23 09:56 | 53.75074 | 10.23341 | 3002 ft | 182 kts | 235° |
| 2026-04-23 09:56 | 53.74271 | 10.21698 | 3008 ft | 182 kts | 235° |
| 2026-04-23 09:56 | 53.73470 | 10.20059 | 3009 ft | 182 kts | 235° |
| 2026-04-23 09:57 | 53.72661 | 10.18407 | 2889 ft | 182 kts | 234° |
| 2026-04-23 09:57 | 53.71859 | 10.16771 | 2683 ft | 179 kts | 235° |
| 2026-04-23 09:57 | 53.71066 | 10.15152 | 2443 ft | 178 kts | 235° |
| 2026-04-23 09:57 | 53.70285 | 10.13560 | 2209 ft | 174 kts | 235° |
| 2026-04-23 09:58 | 53.69531 | 10.12026 | 1972 ft | 164 kts | 236° |
| 2026-04-23 09:58 | 53.68816 | 10.10571 | 1752 ft | 158 kts | 235° |
| 2026-04-23 09:58 | 53.68157 | 10.09233 | 1541 ft | 139 kts | 236° |
| 2026-04-23 09:58 | 53.67566 | 10.08032 | 1355 ft | 127 kts | 237° |
| 2026-04-23 09:59 | 53.67014 | 10.06907 | 1183 ft | 123 kts | 237° |
| 2026-04-23 09:59 | 53.66483 | 10.05828 | 1016 ft | 118 kts | 238° |
| 2026-04-23 09:59 | 53.65961 | 10.04765 | 841 ft | 118 kts | 239° |
| 2026-04-23 09:59 | 53.65438 | 10.03700 | 666 ft | 119 kts | 239° |
| 2026-04-23 10:00 | 53.64908 | 10.02624 | 501 ft | 119 kts | 237° |
| 2026-04-23 10:00 | 53.64390 | 10.01575 | 353 ft | 117 kts | 237° |
| 2026-04-23 10:00 | 53.63869 | 10.00523 | 151 ft | 114 kts | 237° |
| 2026-04-23 10:00 | 53.63373 | 9.99504 | 49 ft | 104 kts | 236° |
| 2026-04-23 10:01 | 53.63001 | 9.98750 | 45 ft | 60 kts | 229° |
| 2026-04-23 10:01 | 53.62825 | 9.98403 | 44 ft | 29 kts | 221° |
| 2026-04-23 10:01 | 53.62683 | 9.98442 | 46 ft | 21 kts | 135° |
| 2026-04-23 10:01 | 53.62711 | 9.98595 | 47 ft | 7 kts | 51° |
| 2026-04-23 10:02 | 53.62746 | 9.98670 | 47 ft | 9 kts | 51° |
| 2026-04-23 10:02 | 53.62784 | 9.98749 | 47 ft | 8 kts | 52° |
| 2026-04-23 10:02 | 53.62817 | 9.98810 | 47 ft | 7 kts | 48° |
| 2026-04-23 10:02 | 53.62857 | 9.98890 | 47 ft | 12 kts | 50° |
| 2026-04-23 10:03 | 53.62919 | 9.99018 | 47 ft | 17 kts | 52° |
| 2026-04-23 10:03 | 53.63004 | 9.99189 | 47 ft | 20 kts | 50° |
| 2026-04-23 10:03 | 53.63089 | 9.99378 | 47 ft | 20 kts | 56° |
| 2026-04-23 10:03 | 53.63172 | 9.99572 | 46 ft | 19 kts | 50° |
| 2026-04-23 10:04 | 53.63218 | 9.99664 | 49 ft | 8 kts | 50° |
| 2026-04-23 10:04 | 53.63223 | 9.99749 | 49 ft | 8 kts | 117° |
| 2026-04-23 10:04 | 53.63174 | 9.99802 | 49 ft | 9 kts | 153° |
| 2026-04-23 10:04 | 53.63118 | 9.99849 | 49 ft | 9 kts | 153° |
| 2026-04-23 10:05 | 53.63056 | 9.99902 | 49 ft | 12 kts | 152° |
| 2026-04-23 10:05 | 53.62963 | 9.99990 | 48 ft | 16 kts | 136° |
| 2026-04-23 10:05 | 53.62978 | 10.00128 | 49 ft | 12 kts | 29° |
| 2026-04-23 10:05 | 53.62990 | 10.00185 | 49 ft | 2 kts | 104° |
| 2026-04-23 10:06 | 53.62973 | 10.00216 | 47 ft | 5 kts | 142° |
| 2026-04-23 10:06 | 53.62963 | 10.00230 | 49 ft | 0 kts | 139° |
| 2026-04-23 10:06 | 53.62959 | 10.00242 | 49 ft | 2 kts | 121° |
| 2026-04-23 10:06 | 53.62945 | 10.00281 | 47 ft | 3 kts | 122° |
| 2026-04-23 10:07 | 53.62942 | 10.00289 | 47 ft | 0 kts | 122° |